Time;durP1;ratioP1;P1;durP2;ratioP2;P2;SDS_P1;SDS_P2;PMS_P1;PMS_P2;Temp;Humidity;BMP_temperature;BMP_pressure;BME280_temperature;BME280_humidity;BME280_pressure;Samples;Min_cycle;Max_cycle;Signal;HPM_P1;HPM_P2
2022/02/23 00:00:30;;;;;;;12.55;8.32;;;;;;;;;;5075039;28;20483;-67
2022/02/23 00:02:56;;;;;;;21.75;9.52;;;;;;;;;;5093268;28;20028;-65
2022/02/23 00:05:23;;;;;;;22.13;10.88;;;;;;;;;;5075050;28;20027;-66
2022/02/23 00:07:49;;;;;;;19.13;10.13;;;;;;;;;;5074970;28;20118;-67
2022/02/23 00:10:15;;;;;;;22.73;10.48;;;;;;;;;;5074647;28;20024;-66
2022/02/23 00:12:41;;;;;;;21.02;10.15;;;;;;;;;;5093062;28;20460;-65
2022/02/23 00:15:09;;;;;;;22.58;9.85;;;;;;;;;;5072823;28;20528;-65
2022/02/23 00:17:37;;;;;;;19.55;9.73;;;;;;;;;;5077119;28;20029;-65
2022/02/23 00:20:04;;;;;;;20.77;9.93;;;;;;;;;;5077336;28;20368;-66
2022/02/23 00:22:32;;;;;;;21.48;10.18;;;;;;;;;;5077032;28;20028;-66
2022/02/23 00:24:58;;;;;;;27.40;12.68;;;;;;;;;;5076983;28;20024;-66
2022/02/23 00:27:24;;;;;;;32.50;15.27;;;;;;;;;;5077147;28;20541;-68
2022/02/23 00:29:53;;;;;;;23.02;10.18;;;;;;;;;;5076862;28;20062;-66
2022/02/23 00:32:20;;;;;;;24.92;11.30;;;;;;;;;;5075379;28;20036;-65
2022/02/23 00:34:46;;;;;;;24.67;12.43;;;;;;;;;;5075428;28;20119;-66
2022/02/23 00:37:13;;;;;;;21.88;10.45;;;;;;;;;;5076441;28;20020;-66
2022/02/23 00:39:39;;;;;;;18.88;9.88;;;;;;;;;;5076686;28;20380;-65
2022/02/23 00:42:05;;;;;;;23.00;10.68;;;;;;;;;;5076601;28;20115;-66
2022/02/23 00:44:32;;;;;;;30.48;13.77;;;;;;;;;;5076564;28;20063;-66
2022/02/23 00:47:19;;;;;;;28.92;12.43;;;;;;;;;;5034117;28;20470;-67
2022/02/23 00:49:47;;;;;;;25.55;12.38;;;;;;;;;;5034073;28;20037;-69
2022/02/23 00:52:13;;;;;;;19.25;8.27;;;;;;;;;;5033978;28;20046;-68
2022/02/23 00:54:39;;;;;;;16.30;9.18;;;;;;;;;;5034009;28;20409;-67
2022/02/23 00:57:06;;;;;;;20.08;9.70;;;;;;;;;;5033942;28;20033;-65
2022/02/23 00:59:32;;;;;;;22.27;10.10;;;;;;;;;;5033870;28;20037;-67
2022/02/23 01:02:00;;;;;;;15.15;7.90;;;;;;;;;;5033865;28;20026;-65
2022/02/23 01:04:27;;;;;;;21.35;9.18;;;;;;;;;;5033763;28;20103;-65
2022/02/23 01:06:53;;;;;;;17.42;7.68;;;;;;;;;;5017119;28;20025;-67
2022/02/23 01:09:19;;;;;;;14.25;7.28;;;;;;;;;;5017044;28;20033;-66
2022/02/23 01:11:46;;;;;;;18.30;7.00;;;;;;;;;;5016842;28;20200;-67
2022/02/23 01:14:12;;;;;;;15.32;7.20;;;;;;;;;;5016624;28;20096;-68
2022/02/23 01:16:39;;;;;;;14.25;6.63;;;;;;;;;;5033630;28;20506;-67
2022/02/23 01:19:06;;;;;;;14.50;6.70;;;;;;;;;;5016862;28;20053;-67
2022/02/23 01:21:32;;;;;;;15.57;7.20;;;;;;;;;;5016908;28;20414;-67
2022/02/23 01:23:58;;;;;;;16.50;7.07;;;;;;;;;;5047376;28;20037;-67
2022/02/23 01:26:25;;;;;;;14.82;8.20;;;;;;;;;;5074934;28;20047;-67
2022/02/23 01:28:54;;;;;;;14.00;8.25;;;;;;;;;;5075758;28;20114;-66
2022/02/23 01:31:20;;;;;;;16.40;7.35;;;;;;;;;;5074395;28;20124;-66
2022/02/23 01:33:46;;;;;;;11.63;5.78;;;;;;;;;;5075631;28;20513;-66
2022/02/23 01:36:21;;;;;;;16.58;6.72;;;;;;;;;;5075398;28;20039;-68
2022/02/23 01:38:47;;;;;;;15.13;6.28;;;;;;;;;;5075650;28;20021;-66
2022/02/23 01:41:17;;;;;;;13.77;6.55;;;;;;;;;;5075553;28;20066;-67
2022/02/23 01:43:44;;;;;;;15.13;6.25;;;;;;;;;;5075494;28;20113;-65
2022/02/23 01:46:11;;;;;;;13.15;5.90;;;;;;;;;;5075397;28;20042;-65
2022/02/23 01:48:37;;;;;;;15.00;6.18;;;;;;;;;;5075486;28;20021;-67
2022/02/23 01:51:04;;;;;;;15.07;6.28;;;;;;;;;;5075356;28;20024;-67
2022/02/23 01:53:30;;;;;;;15.52;7.03;;;;;;;;;;5073702;28;20043;-65
2022/02/23 01:55:56;;;;;;;13.40;6.25;;;;;;;;;;5075269;28;20413;-67
2022/02/23 01:58:23;;;;;;;15.23;6.93;;;;;;;;;;5073896;28;20031;-66
2022/02/23 02:00:49;;;;;;;19.23;8.18;;;;;;;;;;5075149;28;20601;-67
2022/02/23 02:03:15;;;;;;;16.08;8.73;;;;;;;;;;5075190;28;20107;-67
2022/02/23 02:05:45;;;;;;;21.48;8.05;;;;;;;;;;5075079;28;20028;-67
2022/02/23 02:08:11;;;;;;;13.40;6.88;;;;;;;;;;5075036;28;20372;-69
2022/02/23 02:10:37;;;;;;;16.27;7.25;;;;;;;;;;5073617;28;20032;-67
2022/02/23 02:13:04;;;;;;;15.05;7.35;;;;;;;;;;5075034;28;20040;-68
2022/02/23 02:15:30;;;;;;;16.83;6.85;;;;;;;;;;5092540;28;20139;-66
2022/02/23 02:17:56;;;;;;;16.05;7.07;;;;;;;;;;5076926;28;20024;-67
2022/02/23 02:20:22;;;;;;;12.98;6.65;;;;;;;;;;5095006;28;20024;-66
2022/02/23 02:22:48;;;;;;;23.55;8.13;;;;;;;;;;5076814;28;20093;-66
2022/02/23 02:25:15;;;;;;;16.88;7.75;;;;;;;;;;5094892;28;20461;-65
2022/02/23 02:27:41;;;;;;;18.40;7.82;;;;;;;;;;5095153;28;20140;-65
2022/02/23 02:30:07;;;;;;;17.35;7.20;;;;;;;;;;5076680;28;20027;-66
2022/02/23 02:32:33;;;;;;;14.02;6.75;;;;;;;;;;5094711;28;20069;-65
2022/02/23 02:35:00;;;;;;;16.75;8.07;;;;;;;;;;5094684;28;20035;-65
2022/02/23 02:37:26;;;;;;;20.52;8.02;;;;;;;;;;5076382;28;20598;-66
2022/02/23 02:39:52;;;;;;;17.48;7.95;;;;;;;;;;5094627;28;20024;-66
2022/02/23 02:42:18;;;;;;;12.13;6.28;;;;;;;;;;5094541;28;20062;-65
2022/02/23 02:44:45;;;;;;;16.20;6.75;;;;;;;;;;5094544;28;20020;-65
2022/02/23 02:47:11;;;;;;;12.52;5.50;;;;;;;;;;5094175;28;20020;-67
2022/02/23 02:49:38;;;;;;;15.57;6.75;;;;;;;;;;5094483;28;20032;-66
2022/02/23 02:52:05;;;;;;;15.68;6.70;;;;;;;;;;5094289;28;20020;-65
2022/02/23 02:54:32;;;;;;;16.48;5.38;;;;;;;;;;5094388;28;20507;-64
2022/02/23 02:56:58;;;;;;;14.45;5.53;;;;;;;;;;5094278;28;20031;-64
2022/02/23 02:59:24;;;;;;;15.60;5.25;;;;;;;;;;5093997;28;20052;-64
2022/02/23 03:01:50;;;;;;;10.43;4.63;;;;;;;;;;5094194;28;20104;-65
2022/02/23 03:04:17;;;;;;;12.75;5.20;;;;;;;;;;5094161;28;20028;-67
2022/02/23 03:06:43;;;;;;;11.85;4.93;;;;;;;;;;5094110;28;20027;-65
2022/02/23 03:09:09;;;;;;;11.13;5.05;;;;;;;;;;5094105;28;20084;-65
2022/02/23 03:11:36;;;;;;;13.02;4.65;;;;;;;;;;5094055;28;20372;-66
2022/02/23 03:14:02;;;;;;;10.30;4.85;;;;;;;;;;5093558;28;20076;-66
2022/02/23 03:16:29;;;;;;;13.90;4.97;;;;;;;;;;5075714;28;20028;-66
2022/02/23 03:18:55;;;;;;;13.57;5.30;;;;;;;;;;5094125;28;20080;-68
2022/02/23 03:21:21;;;;;;;14.40;5.55;;;;;;;;;;5093858;28;20034;-66
2022/02/23 03:23:47;;;;;;;19.58;6.03;;;;;;;;;;5093022;28;20119;-68
2022/02/23 03:26:14;;;;;;;24.00;6.10;;;;;;;;;;5093459;28;20465;-66
2022/02/23 03:28:41;;;;;;;18.70;7.60;;;;;;;;;;5093727;28;20026;-69
2022/02/23 03:31:08;;;;;;;17.13;7.35;;;;;;;;;;5093659;28;20028;-68
2022/02/23 03:33:34;;;;;;;21.85;7.70;;;;;;;;;;5093601;28;20470;-68
2022/02/23 03:36:01;;;;;;;21.50;7.95;;;;;;;;;;5093644;28;20115;-67
2022/02/23 03:38:27;;;;;;;29.83;9.32;;;;;;;;;;5093626;28;20024;-64
2022/02/23 03:40:54;;;;;;;22.63;7.07;;;;;;;;;;5093579;28;20016;-64
2022/02/23 03:43:20;;;;;;;22.42;7.35;;;;;;;;;;5093491;28;20389;-64
2022/02/23 03:45:46;;;;;;;24.70;6.80;;;;;;;;;;5075293;28;20058;-66
2022/02/23 03:48:13;;;;;;;28.80;8.07;;;;;;;;;;5075269;28;20460;-66
2022/02/23 03:50:39;;;;;;;18.88;6.78;;;;;;;;;;5092711;28;20028;-65
2022/02/23 03:53:05;;;;;;;22.13;8.10;;;;;;;;;;5075125;28;20460;-65
2022/02/23 03:55:32;;;;;;;17.80;7.60;;;;;;;;;;5075208;28;20059;-66
2022/02/23 03:57:58;;;;;;;17.05;7.22;;;;;;;;;;5093332;28;20063;-66
2022/02/23 04:00:24;;;;;;;18.85;6.60;;;;;;;;;;5093320;28;20028;-65
2022/02/23 04:02:51;;;;;;;16.77;7.50;;;;;;;;;;5093215;28;20118;-65
2022/02/23 04:05:17;;;;;;;28.52;7.90;;;;;;;;;;5075131;28;20028;-65
2022/02/23 04:07:43;;;;;;;20.13;7.13;;;;;;;;;;5093190;28;20472;-65
2022/02/23 04:10:09;;;;;;;36.80;9.13;;;;;;;;;;5093423;28;20118;-65
2022/02/23 04:12:36;;;;;;;31.83;8.60;;;;;;;;;;5092976;28;20028;-66
2022/02/23 04:15:02;;;;;;;40.75;8.52;;;;;;;;;;5074565;28;20445;-64
2022/02/23 04:17:28;;;;;;;46.30;9.85;;;;;;;;;;5093087;28;20020;-65
2022/02/23 04:19:54;;;;;;;25.75;7.90;;;;;;;;;;5093090;28;20028;-64
2022/02/23 04:22:21;;;;;;;36.75;9.02;;;;;;;;;;5074912;28;20115;-65
2022/02/23 04:24:47;;;;;;;28.17;7.72;;;;;;;;;;5093023;28;20111;-65
2022/02/23 04:27:13;;;;;;;32.13;9.32;;;;;;;;;;5093024;28;20025;-66
2022/02/23 04:29:39;;;;;;;28.02;7.93;;;;;;;;;;5092687;28;20115;-64
2022/02/23 04:32:06;;;;;;;19.45;6.05;;;;;;;;;;5092874;28;20032;-64
2022/02/23 04:34:32;;;;;;;17.15;5.82;;;;;;;;;;5092627;28;20028;-66
2022/02/23 04:36:58;;;;;;;21.23;6.57;;;;;;;;;;5092897;28;20111;-65
2022/02/23 04:39:24;;;;;;;17.13;8.18;;;;;;;;;;5092840;28;20031;-65
2022/02/23 04:41:51;;;;;;;20.63;6.88;;;;;;;;;;5092593;28;20080;-64
2022/02/23 04:44:17;;;;;;;16.67;6.72;;;;;;;;;;5074802;28;20024;-65
2022/02/23 04:46:43;;;;;;;18.60;6.13;;;;;;;;;;5092820;28;20111;-66
2022/02/23 04:49:09;;;;;;;18.23;6.20;;;;;;;;;;5092955;28;20071;-65
2022/02/23 04:51:38;;;;;;;20.75;6.82;;;;;;;;;;5074695;28;20077;-66
2022/02/23 04:54:04;;;;;;;25.20;7.50;;;;;;;;;;5092721;28;20024;-66
2022/02/23 04:56:30;;;;;;;29.20;6.70;;;;;;;;;;5074564;28;20032;-68
2022/02/23 04:58:57;;;;;;;21.92;6.55;;;;;;;;;;5074558;28;20131;-66
2022/02/23 05:01:23;;;;;;;20.70;5.28;;;;;;;;;;5092779;28;20114;-65
2022/02/23 05:03:49;;;;;;;17.67;5.60;;;;;;;;;;5096508;28;20111;-67
2022/02/23 05:06:15;;;;;;;51.15;17.95;;;;;;;;;;5096441;28;20048;-66
2022/02/23 05:08:42;;;;;;;22.20;11.32;;;;;;;;;;5096721;28;20031;-66
2022/02/23 05:11:08;;;;;;;23.98;9.18;;;;;;;;;;5096636;28;20388;-67
2022/02/23 05:13:34;;;;;;;12.73;6.47;;;;;;;;;;5095805;28;20036;-66
2022/02/23 05:16:02;;;;;;;20.98;6.60;;;;;;;;;;5096361;28;20107;-69
2022/02/23 05:18:30;;;;;;;31.15;11.07;;;;;;;;;;5096220;28;20196;-69
2022/02/23 05:21:00;;;;;;;40.50;15.20;;;;;;;;;;5080591;28;20468;-71
2022/02/23 05:23:27;;;;;;;51.40;16.52;;;;;;;;;;5104191;28;20019;-71
2022/02/23 05:25:54;;;;;;;60.90;17.52;;;;;;;;;;5106384;28;20477;-71
2022/02/23 05:28:20;;;;;;;67.88;21.40;;;;;;;;;;5081013;28;20055;-71
2022/02/23 05:30:46;;;;;;;58.50;22.45;;;;;;;;;;5095936;28;20031;-71
2022/02/23 05:33:13;;;;;;;63.50;27.27;;;;;;;;;;5095859;28;20461;-71
2022/02/23 05:35:40;;;;;;;72.50;28.73;;;;;;;;;;5095768;28;20469;-72
2022/02/23 05:38:06;;;;;;;53.40;25.23;;;;;;;;;;5105287;28;20096;-72
2022/02/23 05:40:33;;;;;;;74.75;30.38;;;;;;;;;;5083894;28;20020;-71
2022/02/23 05:42:59;;;;;;;72.13;26.42;;;;;;;;;;5099379;28;20070;-71
2022/02/23 05:45:25;;;;;;;75.20;24.52;;;;;;;;;;5096709;28;20039;-71
2022/02/23 05:47:52;;;;;;;59.72;23.98;;;;;;;;;;5077492;28;20038;-72
2022/02/23 05:50:18;;;;;;;39.83;17.30;;;;;;;;;;5077411;28;20123;-72
2022/02/23 05:52:47;;;;;;;34.05;13.75;;;;;;;;;;5077278;28;20064;-67
2022/02/23 05:55:13;;;;;;;37.90;16.38;;;;;;;;;;5095519;28;20024;-67
2022/02/23 05:57:39;;;;;;;58.83;24.85;;;;;;;;;;5098176;28;20035;-66
2022/02/23 06:00:07;;;;;;;55.85;23.33;;;;;;;;;;5087014;28;20024;-67
2022/02/23 06:02:33;;;;;;;53.17;17.08;;;;;;;;;;5103926;28;20024;-66
2022/02/23 06:04:59;;;;;;;61.85;25.98;;;;;;;;;;5085115;28;20122;-67
2022/02/23 06:07:26;;;;;;;48.75;20.88;;;;;;;;;;5086678;28;20024;-67
2022/02/23 06:09:52;;;;;;;77.43;31.92;;;;;;;;;;5085241;28;20052;-69
2022/02/23 06:12:18;;;;;;;65.97;25.35;;;;;;;;;;5108418;28;20468;-67
2022/02/23 06:14:44;;;;;;;61.22;27.17;;;;;;;;;;5115469;28;20097;-68
2022/02/23 06:17:11;;;;;;;78.95;29.85;;;;;;;;;;5115461;28;20376;-69
2022/02/23 06:19:37;;;;;;;79.05;34.03;;;;;;;;;;5115073;28;20024;-68
2022/02/23 06:22:03;;;;;;;147.38;60.25;;;;;;;;;;5096893;28;20504;-68
2022/02/23 06:24:29;;;;;;;120.78;48.28;;;;;;;;;;5096976;28;20031;-69
2022/02/23 06:26:57;;;;;;;76.05;33.13;;;;;;;;;;5115416;28;20117;-67
2022/02/23 06:29:23;;;;;;;69.55;31.38;;;;;;;;;;5096743;28;20028;-66
2022/02/23 06:32:03;;;;;;;60.50;26.73;;;;;;;;;;5115073;28;20103;-66
2022/02/23 06:34:29;;;;;;;79.53;28.10;;;;;;;;;;5115121;28;20108;-69
2022/02/23 06:36:56;;;;;;;74.85;30.27;;;;;;;;;;5113699;28;20028;-69
2022/02/23 06:39:22;;;;;;;101.95;44.33;;;;;;;;;;5096301;28;20023;-65
2022/02/23 06:41:48;;;;;;;99.70;42.53;;;;;;;;;;5096573;28;20119;-66
2022/02/23 06:44:15;;;;;;;77.32;32.67;;;;;;;;;;5114862;28;20532;-65
2022/02/23 06:46:41;;;;;;;129.20;46.55;;;;;;;;;;5114549;28;20027;-67
2022/02/23 06:49:08;;;;;;;113.35;46.03;;;;;;;;;;5096461;28;20024;-64
2022/02/23 06:51:34;;;;;;;107.75;46.50;;;;;;;;;;5096305;28;20118;-66
2022/02/23 06:54:00;;;;;;;317.30;109.40;;;;;;;;;;5096121;28;20039;-67
2022/02/23 06:56:27;;;;;;;244.48;91.80;;;;;;;;;;5096252;28;20020;-66
2022/02/23 06:58:53;;;;;;;147.27;56.88;;;;;;;;;;5096341;28;20122;-69
2022/02/23 07:01:20;;;;;;;90.40;37.92;;;;;;;;;;5096281;28;20402;-66
2022/02/23 07:03:47;;;;;;;438.27;156.50;;;;;;;;;;5114419;28;20035;-65
2022/02/23 07:06:14;;;;;;;264.85;99.88;;;;;;;;;;5096090;28;20030;-67
2022/02/23 07:08:44;;;;;;;119.82;54.10;;;;;;;;;;5114285;28;20027;-67
2022/02/23 07:11:10;;;;;;;73.60;34.63;;;;;;;;;;5096081;28;20032;-69
2022/02/23 07:13:36;;;;;;;64.22;28.48;;;;;;;;;;5095750;28;20138;-67
2022/02/23 07:16:02;;;;;;;67.22;31.00;;;;;;;;;;5114371;28;20062;-63
2022/02/23 07:18:29;;;;;;;60.30;22.65;;;;;;;;;;5114171;28;20464;-64
2022/02/23 07:20:55;;;;;;;45.05;20.90;;;;;;;;;;5095574;28;20028;-68
2022/02/23 07:23:22;;;;;;;40.35;18.27;;;;;;;;;;5114120;28;20032;-67
2022/02/23 07:25:51;;;;;;;45.97;19.08;;;;;;;;;;5113478;28;20027;-66
2022/02/23 07:28:18;;;;;;;60.78;26.05;;;;;;;;;;5114066;28;20039;-68
2022/02/23 07:30:44;;;;;;;47.08;24.02;;;;;;;;;;5113710;28;20421;-69
2022/02/23 07:33:13;;;;;;;73.65;27.38;;;;;;;;;;5113826;28;20023;-68
2022/02/23 07:35:39;;;;;;;69.47;30.90;;;;;;;;;;5113974;28;20039;-69
2022/02/23 07:38:08;;;;;;;42.85;20.95;;;;;;;;;;5113850;28;20032;-73
2022/02/23 07:40:34;;;;;;;41.47;15.43;;;;;;;;;;5113918;28;20027;-70
2022/02/23 07:43:02;;;;;;;32.78;15.45;;;;;;;;;;5113667;28;20072;-70
2022/02/23 07:45:29;;;;;;;44.22;19.17;;;;;;;;;;5113476;28;20381;-67
2022/02/23 07:47:55;;;;;;;41.38;17.08;;;;;;;;;;5095421;28;20468;-67
2022/02/23 07:50:22;;;;;;;32.55;15.05;;;;;;;;;;5095370;28;20426;-69
2022/02/23 07:52:50;;;;;;;32.83;15.68;;;;;;;;;;5113587;28;20118;-67
2022/02/23 07:55:16;;;;;;;46.95;17.13;;;;;;;;;;5113655;28;20031;-68
2022/02/23 07:57:42;;;;;;;51.47;23.50;;;;;;;;;;5113631;28;20049;-68
2022/02/23 08:00:09;;;;;;;105.22;44.00;;;;;;;;;;5113578;28;20059;-67
2022/02/23 08:02:36;;;;;;;143.05;53.83;;;;;;;;;;5113539;28;20031;-66
2022/02/23 08:05:03;;;;;;;104.43;39.20;;;;;;;;;;5113789;28;20121;-67
2022/02/23 08:07:29;;;;;;;67.95;34.78;;;;;;;;;;5095149;28;20054;-67
2022/02/23 08:09:55;;;;;;;77.35;42.40;;;;;;;;;;5095260;28;20032;-68
2022/02/23 08:12:22;;;;;;;78.05;40.60;;;;;;;;;;5113297;28;20032;-70
2022/02/23 08:14:48;;;;;;;52.17;24.70;;;;;;;;;;5099438;28;20485;-69
2022/02/23 08:19:59;;;;;;;95.93;51.97;;;;;;;;;;5092925;28;20043;-68
2022/02/23 08:22:29;;;;;;;79.75;43.10;;;;;;;;;;5092923;28;20032;-70
2022/02/23 08:24:56;;;;;;;67.72;34.70;;;;;;;;;;5092830;28;20845;-72
2022/02/23 08:27:23;;;;;;;38.38;17.08;;;;;;;;;;5074589;28;20024;-77
2022/02/23 08:29:51;;;;;;;43.63;21.10;;;;;;;;;;5074259;28;20024;-73
2022/02/23 08:32:18;;;;;;;35.20;15.60;;;;;;;;;;5092699;28;20097;-65
2022/02/23 08:34:47;;;;;;;42.60;16.02;;;;;;;;;;5074309;28;20031;-67
2022/02/23 08:37:14;;;;;;;31.92;15.05;;;;;;;;;;5096061;28;20024;-67
2022/02/23 08:39:41;;;;;;;32.92;13.88;;;;;;;;;;5096374;28;20092;-72
2022/02/23 08:42:09;;;;;;;34.10;15.07;;;;;;;;;;5078450;28;20068;-66
2022/02/23 08:44:36;;;;;;;38.85;16.13;;;;;;;;;;5096668;28;20032;-65
2022/02/23 08:47:02;;;;;;;34.80;15.05;;;;;;;;;;5078512;28;20110;-70
2022/02/23 08:49:29;;;;;;;37.92;15.63;;;;;;;;;;5096535;28;20107;-68
2022/02/23 08:51:56;;;;;;;34.85;15.98;;;;;;;;;;5096585;28;20028;-66
2022/02/23 08:54:22;;;;;;;39.30;16.33;;;;;;;;;;5096131;28;20903;-68
2022/02/23 08:56:48;;;;;;;36.88;18.63;;;;;;;;;;5096586;28;20027;-67
2022/02/23 08:59:15;;;;;;;48.40;24.60;;;;;;;;;;5096482;28;20110;-69
2022/02/23 09:01:41;;;;;;;70.93;26.27;;;;;;;;;;5096323;28;20107;-68
2022/02/23 09:04:07;;;;;;;55.88;31.67;;;;;;;;;;5077840;28;20085;-67
2022/02/23 09:06:35;;;;;;;36.08;15.18;;;;;;;;;;5096511;28;20072;-66
2022/02/23 09:09:04;;;;;;;37.65;16.95;;;;;;;;;;5096155;28;20024;-68
2022/02/23 09:11:31;;;;;;;54.83;27.63;;;;;;;;;;5077864;28;20024;-71
2022/02/23 09:13:57;;;;;;;31.15;14.43;;;;;;;;;;5095781;28;20560;-69
2022/02/23 09:16:23;;;;;;;27.30;11.63;;;;;;;;;;5096391;28;20782;-69
2022/02/23 09:18:50;;;;;;;22.55;11.00;;;;;;;;;;5095786;28;20111;-71
2022/02/23 09:21:16;;;;;;;28.25;12.02;;;;;;;;;;5096006;28;20028;-71
2022/02/23 09:23:43;;;;;;;35.17;13.23;;;;;;;;;;5077550;28;20052;-69
2022/02/23 09:26:10;;;;;;;499.73;258.80;;;;;;;;;;5095685;28;20036;-70
2022/02/23 09:28:40;;;;;;;35.50;17.05;;;;;;;;;;5077714;28;20112;-70
2022/02/23 09:31:07;;;;;;;23.85;9.38;;;;;;;;;;5096132;28;20031;-69
2022/02/23 09:33:34;;;;;;;28.30;10.88;;;;;;;;;;5095623;28;20043;-67
2022/02/23 09:36:02;;;;;;;27.15;13.23;;;;;;;;;;5095844;28;20028;-69
2022/02/23 09:38:29;;;;;;;29.52;12.40;;;;;;;;;;5095700;28;20456;-70
2022/02/23 09:40:57;;;;;;;27.45;13.35;;;;;;;;;;5095882;28;20056;-68
2022/02/23 09:43:23;;;;;;;29.45;11.15;;;;;;;;;;5077232;28;20433;-69
2022/02/23 09:45:54;;;;;;;62.58;30.75;;;;;;;;;;5095877;28;20035;-70
2022/02/23 09:48:28;;;;;;;36.60;18.97;;;;;;;;;;5094852;28;20028;-72
2022/02/23 09:50:55;;;;;;;29.67;13.57;;;;;;;;;;5095488;28;20027;-73
2022/02/23 09:53:22;;;;;;;27.58;12.82;;;;;;;;;;5095032;28;20069;-72
2022/02/23 09:55:50;;;;;;;20.50;10.45;;;;;;;;;;5095175;28;20031;-71
2022/02/23 09:58:16;;;;;;;26.25;12.07;;;;;;;;;;5112772;28;20015;-72
2022/02/23 10:00:43;;;;;;;37.15;12.55;;;;;;;;;;5114975;28;20398;-71
2022/02/23 10:03:10;;;;;;;22.60;9.93;;;;;;;;;;5097214;28;20493;-71
2022/02/23 10:05:38;;;;;;;24.10;9.32;;;;;;;;;;5115369;28;20487;-75
2022/02/23 10:08:05;;;;;;;19.48;10.27;;;;;;;;;;5097267;28;20027;-70
2022/02/23 10:10:32;;;;;;;32.05;14.20;;;;;;;;;;5115456;28;20080;-72
2022/02/23 10:13:03;;;;;;;27.08;12.73;;;;;;;;;;5115353;28;20074;-73
2022/02/23 10:15:29;;;;;;;25.42;10.77;;;;;;;;;;5096708;28;20078;-76
2022/02/23 10:17:56;;;;;;;32.17;14.02;;;;;;;;;;5115471;28;20031;-72
2022/02/23 10:20:34;;;;;;;30.80;12.90;;;;;;;;;;5114934;28;20490;-71
2022/02/23 10:23:15;;;;;;;27.23;13.00;;;;;;;;;;5096925;28;20035;-69
2022/02/23 10:25:43;;;;;;;26.90;10.88;;;;;;;;;;5114871;28;20421;-68
2022/02/23 10:28:14;;;;;;;22.23;11.25;;;;;;;;;;5115198;28;20026;-72
2022/02/23 10:30:49;;;;;;;20.25;10.07;;;;;;;;;;5096679;28;20126;-71
2022/02/23 10:33:16;;;;;;;28.13;11.95;;;12.30;94.20;;;;;;5096674;28;20028;-70
2022/02/23 10:35:52;;;;;;;19.73;8.70;;;;;;;;;;5114925;28;20134;-68
2022/02/23 10:38:28;;;;;;;20.65;8.45;;;11.90;83.20;;;;;;5096492;28;20019;-70
2022/02/23 10:40:57;;;;;;;16.80;9.75;;;;;;;;;;5114975;28;20058;-71
2022/02/23 10:43:25;;;;;;;25.65;9.88;;;;;;;;;;5096518;28;20503;-71
2022/02/23 10:45:52;;;;;;;17.30;8.27;;;;;;;;;;5115018;28;20460;-70
2022/02/23 10:48:51;;;;;;;15.63;6.85;;;12.00;75.00;;;;;;5114843;28;20019;-68
2022/02/23 10:51:23;;;;;;;20.38;7.28;;;12.30;90.30;;;;;;5114807;28;20031;-70
2022/02/23 10:53:50;;;;;;;18.88;7.82;;;;;;;;;;5095772;28;20028;-69
2022/02/23 10:56:24;;;;;;;22.25;8.30;;;;;;;;;;5114260;28;20474;-72
2022/02/23 10:59:23;;;;;;;23.00;9.48;;;13.60;77.60;;;;;;5114068;28;20030;-73
2022/02/23 11:01:50;;;;;;;15.73;5.45;;;;;;;;;;5011610;28;20037;-72
2022/02/23 11:04:17;;;;;;;12.88;6.38;;;;;;;;;;5011709;28;20037;-70
2022/02/23 11:06:43;;;;;;;16.05;6.82;;;15.90;68.80;;;;;;5011713;28;20110;-73
2022/02/23 11:09:09;;;;;;;18.00;7.20;;;;;;;;;;4995093;28;20033;-71
2022/02/23 11:11:36;;;;;;;17.92;6.53;;;17.10;60.80;;;;;;5011506;28;20088;-69
2022/02/23 11:14:06;;;;;;;13.73;6.00;;;17.20;59.30;;;;;;5011229;28;20053;-70
2022/02/23 11:16:32;;;;;;;16.00;6.53;;;;;;;;;;5011365;28;20093;-72
2022/02/23 11:19:00;;;;;;;15.15;6.53;;;17.10;58.20;;;;;;4994979;28;20036;-67
2022/02/23 11:21:34;;;;;;;17.88;7.35;;;;;;;;;;5011259;28;20505;-68
2022/02/23 11:24:03;;;;;;;16.25;6.43;;;16.40;61.50;;;;;;5011507;28;20037;-70
2022/02/23 11:26:32;;;;;;;14.30;6.95;;;14.60;61.50;;;;;;5010403;28;20037;-70
2022/02/23 11:29:06;;;;;;;17.85;6.97;;;13.80;63.60;;;;;;5009680;28;20210;-71
2022/02/23 11:31:37;;;;;;;16.10;5.32;;;13.10;64.70;;;;;;5009487;28;20069;-69
2022/02/23 11:34:08;;;;;;;18.60;6.93;;;12.50;66.70;;;;;;4994666;28;20038;-69
2022/02/23 11:36:49;;;;;;;24.67;7.15;;;12.20;67.90;;;;;;4994958;28;20712;-69
2022/02/23 11:39:18;;;;;;;29.95;12.43;;;12.10;69.50;;;;;;5110019;28;20031;-70
2022/02/23 11:41:48;;;;;;;20.52;8.52;;;11.90;70.90;;;;;;5113576;28;20054;-69
2022/02/23 11:44:16;;;;;;;23.42;10.20;;;12.20;71.00;;;;;;5094917;28;20023;-68
2022/02/23 11:46:50;;;;;;;14.98;6.22;;;12.20;71.90;;;;;;5113719;28;20024;-69
2022/02/23 11:49:18;;;;;;;13.57;4.85;;;12.00;69.30;;;;;;5113636;28;20024;-69
2022/02/23 11:51:44;;;;;;;10.95;5.25;;;11.90;70.90;;;;;;5113454;28;20028;-69
2022/02/23 11:54:14;;;;;;;12.55;4.00;;;11.70;70.40;;;;;;5113550;28;20032;-68
2022/02/23 11:56:50;;;;;;;14.07;5.38;;;11.60;70.10;;;;;;5095309;28;20044;-68
2022/02/23 11:59:45;;;;;;;20.80;6.93;;;11.80;71.40;;;;;;5113332;28;20024;-68
2022/02/23 12:02:12;;;;;;;10.68;5.22;;;11.70;71.70;;;;;;5113465;28;20020;-69
2022/02/23 12:04:48;;;;;;;16.50;5.82;;;11.90;80.60;;;;;;5113421;28;20034;-68
2022/02/23 12:07:14;;;;;;;15.73;6.05;;;11.80;91.00;;;;;;5095143;28;20019;-68
2022/02/23 12:09:44;;;;;;;11.35;3.85;;;;;;;;;;5113483;28;20073;-69
2022/02/23 12:12:28;;;;;;;12.45;3.85;;;;;;;;;;5094834;28;20061;-68
2022/02/23 12:14:55;;;;;;;11.30;4.22;;;;;;;;;;5113111;28;20051;-68
2022/02/23 12:17:40;;;;;;;17.30;4.95;;;;;;;;;;5113310;28;20019;-68
2022/02/23 12:20:06;;;;;;;15.25;3.30;;;;;;;;;;5113479;28;20028;-68
2022/02/23 12:22:38;;;;;;;7.72;3.83;;;;;;;;;;5112997;28;20383;-68
2022/02/23 12:25:05;;;;;;;11.82;4.68;;;;;;;;;;5094682;28;20027;-70
2022/02/23 12:27:35;;;;;;;9.90;3.55;;;;;;;;;;5113055;28;20028;-69
2022/02/23 12:30:01;;;;;;;10.43;3.10;;;;;;;;;;5113159;28;20107;-69
2022/02/23 12:32:28;;;;;;;11.23;3.75;;;;;;;;;;5094664;28;20026;-68
2022/02/23 12:34:59;;;;;;;10.50;3.88;;;11.90;74.60;;;;;;5094744;28;20035;-69
2022/02/23 12:37:28;;;;;;;10.05;2.83;;;12.20;90.00;;;;;;5113035;28;20026;-69
2022/02/23 12:39:56;;;;;;;6.60;3.05;;;12.30;71.20;;;;;;5112892;28;20131;-69
2022/02/23 12:42:27;;;;;;;10.30;3.08;;;;;;;;;;5113078;28;20031;-70
2022/02/23 12:44:54;;;;;;;9.13;2.65;;;;;;;;;;5113061;28;20019;-69
2022/02/23 12:47:20;;;;;;;9.23;2.45;;;13.80;67.50;;;;;;5094701;28;20043;-70
2022/02/23 12:49:46;;;;;;;9.13;3.20;;;17.20;57.90;;;;;;5094625;28;20472;-69
2022/02/23 12:52:12;;;;;;;5.43;2.35;;;17.10;59.00;;;;;;5113005;28;20532;-69
2022/02/23 12:54:37;;;;;;;6.43;1.98;;;17.20;57.30;;;;;;5112741;28;20400;-69
2022/02/23 12:57:05;;;;;;;12.55;2.92;;;;;;;;;;5094580;28;20023;-69
2022/02/23 12:59:33;;;;;;;5.10;1.98;;;17.20;56.80;;;;;;5112850;28;20020;-69
2022/02/23 13:02:02;;;;;;;9.07;2.30;;;17.60;57.00;;;;;;5112848;28;20030;-71
2022/02/23 13:04:36;;;;;;;7.07;2.78;;;;;;;;;;5094586;28;20035;-67
2022/02/23 13:07:04;;;;;;;10.57;2.25;;;16.40;58.30;;;;;;5094626;28;20077;-69
2022/02/23 13:09:38;;;;;;;8.10;2.70;;;;;;;;;;5112666;28;20024;-66
2022/02/23 13:12:06;;;;;;;6.35;2.90;;;14.90;64.10;;;;;;5094843;28;20375;-66
2022/02/23 13:14:37;;;;;;;19.45;2.90;;;;;;;;;;5112338;28;20055;-67
2022/02/23 13:17:06;;;;;;;6.07;2.55;;;16.80;57.40;;;;;;5094396;28;20027;-66
2022/02/23 13:19:33;;;;;;;9.57;3.63;;;;;;;;;;5112626;28;20023;-69
2022/02/23 13:22:04;;;;;;;12.43;4.85;;;16.00;57.60;;;;;;5112710;28;20024;-65
2022/02/23 13:24:35;;;;;;;8.05;3.42;;;;;;;;;;5116048;28;20452;-67
2022/02/23 13:27:13;;;;;;;7.97;3.53;;;17.30;56.90;;;;;;5116361;28;20354;-69
2022/02/23 13:29:41;;;;;;;7.03;3.42;;;19.50;53.10;;;;;;5116504;28;20027;-67
2022/02/23 13:32:12;;;;;;;8.38;3.75;;;18.10;53.70;;;;;;5115861;28;20497;-70
2022/02/23 13:34:40;;;;;;;11.57;4.70;;;;;;;;;;5097764;28;20461;-71
2022/02/23 13:37:11;;;;;;;7.75;3.25;;;;;;;;;;5116159;28;20024;-70
2022/02/23 13:39:49;;;;;;;12.18;4.93;;;18.20;55.00;;;;;;5115880;28;20536;-70
2022/02/23 13:42:36;;;;;;;16.95;5.25;;;15.10;62.70;;;;;;5116174;28;20054;-71
2022/02/23 13:45:22;;;;;;;12.85;4.65;;;14.10;64.50;;;;;;5116101;28;20479;-70
2022/02/23 13:48:00;;;;;;;14.38;5.03;;;14.10;64.30;;;;;;5116056;28;20407;-69
2022/02/23 13:50:33;;;;;;;9.52;3.97;;;14.00;64.20;;;;;;5115959;28;20479;-68
2022/02/23 13:53:17;;;;;;;11.05;4.10;;;14.30;63.40;;;;;;5097277;28;20031;-67
2022/02/23 13:55:51;;;;;;;15.73;7.13;;;13.90;64.10;;;;;;5115747;28;20035;-68
2022/02/23 13:58:29;;;;;;;12.75;4.63;;;13.20;66.80;;;;;;5115544;28;20376;-69
2022/02/23 14:00:56;;;;;;;15.32;4.75;;;12.80;67.70;;;;;;5115486;28;20066;-68
2022/02/23 14:03:35;;;;;;;11.18;4.78;;;13.10;68.30;;;;;;5115343;28;20055;-68
2022/02/23 14:06:08;;;;;;;10.40;5.00;;;12.80;69.40;;;;;;5097016;28;20373;-69
2022/02/23 14:08:37;;;;;;;13.93;4.35;;;12.80;68.90;;;;;;5115551;28;20020;-69
2022/02/23 14:11:22;;;;;;;16.75;5.20;;;12.90;69.00;;;;;;5097038;28;20026;-70